Date,TemperatureHighF,TemperatureAvgF,TemperatureLowF,DewpointHighF,DewpointAvgF,DewpointLowF,HumidityHigh,HumidityAvg,HumidityLow,PressureMaxIn,PressureMinIn,WindSpeedMaxMPH,WindSpeedAvgMPH,GustSpeedMaxMPH,PrecipitationSumIn
2013-7-1,91.2,80.1,69.6,69.6,67.5,64.6,88,67,45,29.91,29.79,11,1,12,0.00
2013-7-2,93.2,80.8,69.4,71.1,68.8,66.4,91,69,46,29.99,29.89,5,0,7,0.00
2013-7-3,91.6,76.7,70.3,77.2,70.9,66.7,94,83,55,30.01,29.92,8,0,9,0.15
2013-7-4,94.1,81.2,70.2,76.3,72.7,68.9,97,77,50,29.97,29.89,7,0,10,0.01
2013-7-5,85.5,78.7,73.9,78.1,73.8,70.9,95,85,72,30.00,29.93,18,1,20,0.05
2013-7-6,91.6,78.9,71.1,77.9,74.0,70.0,98,86,62,29.99,29.92,12,1,13,0.02
2013-7-7,85.5,77.6,73.8,78.4,74.9,72.7,97,92,75,30.08,29.95,13,1,14,0.06
2013-7-8,94.5,78.9,72.5,80.4,75.1,72.0,99,89,59,30.15,30.04,12,1,15,0.00
2013-7-9,97.3,83.2,72.9,78.1,75.5,72.3,99,80,51,30.18,30.05,9,1,11,0.00
2013-7-10,94.8,84.7,75.7,78.6,76.3,71.4,98,78,52,30.10,29.95,13,2,14,0.00
2013-7-11,91.8,79.6,73.4,79.0,75.3,71.8,97,87,61,29.99,29.90,16,2,22,0.00
2013-7-12,97.5,83.6,72.5,79.9,75.0,72.0,99,78,48,29.95,29.83,9,1,9,0.00
2013-7-13,94.8,83.0,72.7,75.6,72.2,68.7,90,71,47,29.93,29.85,6,0,8,0.00
2013-7-14,95.5,78.0,72.0,77.7,73.1,66.4,97,86,52,30.00,29.88,21,1,23,0.00
2013-7-15,90.3,77.1,72.9,79.7,74.4,72.0,98,92,69,30.09,29.97,8,1,11,0.00
2013-7-16,86.2,78.4,72.7,79.0,75.4,71.8,98,91,76,30.15,30.05,8,1,10,0.00
2013-7-17,95.4,82.7,74.8,79.7,75.8,72.3,98,81,51,30.20,30.09,9,1,12,0.00
2013-7-18,95.0,81.8,73.4,77.7,74.5,70.9,96,80,52,30.16,29.99,11,0,15,0.00
2013-7-19,97.3,84.2,73.6,77.9,74.4,71.1,96,75,45,30.05,29.92,8,1,11,0.00
2013-7-20,93.7,82.6,74.1,77.0,74.6,71.2,97,79,54,29.99,29.90,15,1,17,0.00
2013-7-21,84.7,78.3,73.0,77.0,74.5,71.8,97,88,73,30.09,29.96,15,2,17,0.00
2013-7-22,90.3,81.7,73.9,80.2,76.5,72.7,98,85,65,30.04,29.97,14,2,18,0.00
2013-7-23,93.9,84.4,76.6,79.5,77.0,74.8,98,80,56,30.05,29.91,15,3,18,0.00
2013-7-24,93.2,84.7,78.3,78.6,76.4,73.6,93,77,58,29.98,29.86,15,4,19,0.00
2013-7-25,97.2,85.2,76.6,77.4,74.9,73.2,91,73,52,30.03,29.91,8,1,9,0.00
2013-7-26,96.6,83.8,73.0,76.8,73.7,70.3,92,74,50,30.06,29.93,10,1,12,0.00
2013-7-27,85.3,79.7,73.6,80.6,76.9,71.4,98,91,81,29.96,29.84,25,2,31,0.00
2013-7-28,93.6,82.5,73.0,78.1,75.4,72.3,98,81,58,29.99,29.87,6,0,8,0.00
2013-7-29,99.0,85.2,75.0,79.5,76.4,72.3,97,77,44,30.08,29.99,9,0,12,0.00
2013-7-30,96.4,85.4,78.1,78.8,76.7,73.6,93,77,54,30.14,30.04,8,1,10,0.00
2013-7-31,95.7,84.8,78.4,80.4,77.2,74.5,92,79,55,30.09,29.95,17,2,18,0.00